<?xml version="1.0" encoding="UTF-8" standalone="no" ?>
<gpx xmlns="http://www.topografix.com/GPX/1/1" xmlns:xsi="http://www.w3.org/2001/XMLSchema-instance" xsi:schemaLocation="http://www.topografix.com/GPX/1/1 http://www.topografix.com/GPX/1/1/gpx.xsd" version="1.1" creator="VisuGPX - https://www.visugpx.com">
  <metadata>
    <name>Seraincourt-Jambville-Frémainville-Forêt Galluis</name>
    <desc><![CDATA[FAIT]]></desc>
  </metadata>
  <trk>
    <name><![CDATA[Seraincourt-Jambville-Frémainville-Forêt Galluis-14517502]]></name>
    <trkseg>
      <trkpt lat="49.03475" lon="1.86441">
        <ele>39</ele>
        <time>2023-01-10T07:39:34Z</time>
      </trkpt>
      <trkpt lat="49.03497" lon="1.86421">
        <ele>39</ele>
        <time>2023-01-10T07:40:08Z</time>
      </trkpt>
      <trkpt lat="49.0351" lon="1.86376">
        <ele>41</ele>
        <time>2023-01-10T07:40:51Z</time>
      </trkpt>
      <trkpt lat="49.03515" lon="1.8637">
        <ele>41</ele>
        <time>2023-01-10T07:41:00Z</time>
      </trkpt>
      <trkpt lat="49.0353" lon="1.86265">
        <ele>43</ele>
        <time>2023-01-10T07:42:34Z</time>
      </trkpt>
      <trkpt lat="49.03545" lon="1.86221">
        <ele>44</ele>
        <time>2023-01-10T07:43:17Z</time>
      </trkpt>
      <trkpt lat="49.03549" lon="1.86186">
        <ele>44</ele>
        <time>2023-01-10T07:43:48Z</time>
      </trkpt>
      <trkpt lat="49.03595" lon="1.86025">
        <ele>44</ele>
        <time>2023-01-10T07:46:22Z</time>
      </trkpt>
      <trkpt lat="49.03604" lon="1.85978">
        <ele>44</ele>
        <time>2023-01-10T07:47:05Z</time>
      </trkpt>
      <trkpt lat="49.03647" lon="1.85914">
        <ele>48</ele>
        <time>2023-01-10T07:48:25Z</time>
      </trkpt>
      <trkpt lat="49.03662" lon="1.85883">
        <ele>52</ele>
        <time>2023-01-10T07:48:59Z</time>
      </trkpt>
      <trkpt lat="49.03666" lon="1.85862">
        <ele>53</ele>
        <time>2023-01-10T07:49:18Z</time>
      </trkpt>
      <trkpt lat="49.0368" lon="1.8583">
        <ele>57</ele>
        <time>2023-01-10T07:49:51Z</time>
      </trkpt>
      <trkpt lat="49.0369" lon="1.85812">
        <ele>58</ele>
        <time>2023-01-10T07:50:12Z</time>
      </trkpt>
      <trkpt lat="49.03699" lon="1.85805">
        <ele>60</ele>
        <time>2023-01-10T07:50:25Z</time>
      </trkpt>
      <trkpt lat="49.03747" lon="1.857">
        <ele>71</ele>
        <time>2023-01-10T07:52:17Z</time>
      </trkpt>
      <trkpt lat="49.03757" lon="1.85664">
        <ele>75</ele>
        <time>2023-01-10T07:52:52Z</time>
      </trkpt>
      <trkpt lat="49.03761" lon="1.85632">
        <ele>78</ele>
        <time>2023-01-10T07:53:20Z</time>
      </trkpt>
      <trkpt lat="49.03759" lon="1.85607">
        <ele>80</ele>
        <time>2023-01-10T07:53:42Z</time>
      </trkpt>
      <trkpt lat="49.0378" lon="1.85606">
        <ele>84</ele>
        <time>2023-01-10T07:54:10Z</time>
      </trkpt>
      <trkpt lat="49.03785" lon="1.85612">
        <ele>85</ele>
        <time>2023-01-10T07:54:19Z</time>
      </trkpt>
      <trkpt lat="49.03788" lon="1.8563">
        <ele>84</ele>
        <time>2023-01-10T07:54:35Z</time>
      </trkpt>
      <trkpt lat="49.03796" lon="1.85639">
        <ele>84</ele>
        <time>2023-01-10T07:54:48Z</time>
      </trkpt>
      <trkpt lat="49.03825" lon="1.85659">
        <ele>87</ele>
        <time>2023-01-10T07:55:31Z</time>
      </trkpt>
      <trkpt lat="49.0386" lon="1.85671">
        <ele>90</ele>
        <time>2023-01-10T07:56:19Z</time>
      </trkpt>
      <trkpt lat="49.03875" lon="1.85687">
        <ele>90</ele>
        <time>2023-01-10T07:56:43Z</time>
      </trkpt>
      <trkpt lat="49.03909" lon="1.85697">
        <ele>93</ele>
        <time>2023-01-10T07:57:29Z</time>
      </trkpt>
      <trkpt lat="49.03946" lon="1.85731">
        <ele>91</ele>
        <time>2023-01-10T07:58:27Z</time>
      </trkpt>
      <trkpt lat="49.03983" lon="1.85739">
        <ele>94</ele>
        <time>2023-01-10T07:59:17Z</time>
      </trkpt>
      <trkpt lat="49.04022" lon="1.85768">
        <ele>92</ele>
        <time>2023-01-10T08:00:15Z</time>
      </trkpt>
      <trkpt lat="49.0403" lon="1.85768">
        <ele>93</ele>
        <time>2023-01-10T08:00:25Z</time>
      </trkpt>
      <trkpt lat="49.04034" lon="1.85778">
        <ele>91</ele>
        <time>2023-01-10T08:00:36Z</time>
      </trkpt>
      <trkpt lat="49.04049" lon="1.85789">
        <ele>90</ele>
        <time>2023-01-10T08:00:58Z</time>
      </trkpt>
      <trkpt lat="49.04062" lon="1.85792">
        <ele>90</ele>
        <time>2023-01-10T08:01:15Z</time>
      </trkpt>
      <trkpt lat="49.04085" lon="1.85805">
        <ele>89</ele>
        <time>2023-01-10T08:01:48Z</time>
      </trkpt>
      <trkpt lat="49.04099" lon="1.85806">
        <ele>90</ele>
        <time>2023-01-10T08:02:07Z</time>
      </trkpt>
      <trkpt lat="49.04117" lon="1.85797">
        <ele>94</ele>
        <time>2023-01-10T08:02:32Z</time>
      </trkpt>
      <trkpt lat="49.04129" lon="1.85781">
        <ele>97</ele>
        <time>2023-01-10T08:02:53Z</time>
      </trkpt>
      <trkpt lat="49.04157" lon="1.85766">
        <ele>100</ele>
        <time>2023-01-10T08:03:33Z</time>
      </trkpt>
      <trkpt lat="49.04166" lon="1.85755">
        <ele>102</ele>
        <time>2023-01-10T08:03:48Z</time>
      </trkpt>
      <trkpt lat="49.04184" lon="1.85751">
        <ele>102</ele>
        <time>2023-01-10T08:04:13Z</time>
      </trkpt>
      <trkpt lat="49.04291" lon="1.8568">
        <ele>107</ele>
        <time>2023-01-10T08:06:48Z</time>
      </trkpt>
      <trkpt lat="49.0439" lon="1.85582">
        <ele>112</ele>
        <time>2023-01-10T08:09:26Z</time>
      </trkpt>
      <trkpt lat="49.04441" lon="1.85525">
        <ele>115</ele>
        <time>2023-01-10T08:10:50Z</time>
      </trkpt>
      <trkpt lat="49.04458" lon="1.85512">
        <ele>116</ele>
        <time>2023-01-10T08:11:15Z</time>
      </trkpt>
      <trkpt lat="49.04491" lon="1.85492">
        <ele>118</ele>
        <time>2023-01-10T08:12:03Z</time>
      </trkpt>
      <trkpt lat="49.04505" lon="1.85492">
        <ele>118</ele>
        <time>2023-01-10T08:12:22Z</time>
      </trkpt>
      <trkpt lat="49.04516" lon="1.85485">
        <ele>119</ele>
        <time>2023-01-10T08:12:37Z</time>
      </trkpt>
      <trkpt lat="49.04546" lon="1.85483">
        <ele>119</ele>
        <time>2023-01-10T08:13:18Z</time>
      </trkpt>
      <trkpt lat="49.04597" lon="1.85462">
        <ele>120</ele>
        <time>2023-01-10T08:14:28Z</time>
      </trkpt>
      <trkpt lat="49.04606" lon="1.85465">
        <ele>121</ele>
        <time>2023-01-10T08:14:40Z</time>
      </trkpt>
      <trkpt lat="49.04615" lon="1.85435">
        <ele>121</ele>
        <time>2023-01-10T08:15:09Z</time>
      </trkpt>
      <trkpt lat="49.04605" lon="1.85385">
        <ele>121</ele>
        <time>2023-01-10T08:15:55Z</time>
      </trkpt>
      <trkpt lat="49.04585" lon="1.85327">
        <ele>121</ele>
        <time>2023-01-10T08:16:52Z</time>
      </trkpt>
      <trkpt lat="49.04564" lon="1.85298">
        <ele>121</ele>
        <time>2023-01-10T08:17:30Z</time>
      </trkpt>
      <trkpt lat="49.04563" lon="1.85288">
        <ele>122</ele>
        <time>2023-01-10T08:17:39Z</time>
      </trkpt>
      <trkpt lat="49.04593" lon="1.85283">
        <ele>122</ele>
        <time>2023-01-10T08:18:19Z</time>
      </trkpt>
      <trkpt lat="49.04629" lon="1.85258">
        <ele>124</ele>
        <time>2023-01-10T08:19:12Z</time>
      </trkpt>
      <trkpt lat="49.04648" lon="1.85256">
        <ele>124</ele>
        <time>2023-01-10T08:19:37Z</time>
      </trkpt>
      <trkpt lat="49.04661" lon="1.85242">
        <ele>125</ele>
        <time>2023-01-10T08:19:59Z</time>
      </trkpt>
      <trkpt lat="49.04667" lon="1.8522">
        <ele>125</ele>
        <time>2023-01-10T08:20:19Z</time>
      </trkpt>
      <trkpt lat="49.04672" lon="1.85216">
        <ele>126</ele>
        <time>2023-01-10T08:20:27Z</time>
      </trkpt>
      <trkpt lat="49.0471" lon="1.85204">
        <ele>127</ele>
        <time>2023-01-10T08:21:19Z</time>
      </trkpt>
      <trkpt lat="49.04735" lon="1.85203">
        <ele>128</ele>
        <time>2023-01-10T08:21:52Z</time>
      </trkpt>
      <trkpt lat="49.04781" lon="1.85183">
        <ele>128</ele>
        <time>2023-01-10T08:22:56Z</time>
      </trkpt>
      <trkpt lat="49.04816" lon="1.85182">
        <ele>128</ele>
        <time>2023-01-10T08:23:43Z</time>
      </trkpt>
      <trkpt lat="49.04834" lon="1.85173">
        <ele>128</ele>
        <time>2023-01-10T08:24:08Z</time>
      </trkpt>
      <trkpt lat="49.04923" lon="1.85156">
        <ele>126</ele>
        <time>2023-01-10T08:26:08Z</time>
      </trkpt>
      <trkpt lat="49.04939" lon="1.85149">
        <ele>127</ele>
        <time>2023-01-10T08:26:30Z</time>
      </trkpt>
      <trkpt lat="49.04951" lon="1.85138">
        <ele>127</ele>
        <time>2023-01-10T08:26:48Z</time>
      </trkpt>
      <trkpt lat="49.05005" lon="1.85113">
        <ele>128</ele>
        <time>2023-01-10T08:28:04Z</time>
      </trkpt>
      <trkpt lat="49.05033" lon="1.85107">
        <ele>126</ele>
        <time>2023-01-10T08:28:42Z</time>
      </trkpt>
      <trkpt lat="49.05036" lon="1.85099">
        <ele>126</ele>
        <time>2023-01-10T08:28:50Z</time>
      </trkpt>
      <trkpt lat="49.05029" lon="1.85056">
        <ele>128</ele>
        <time>2023-01-10T08:29:28Z</time>
      </trkpt>
      <trkpt lat="49.05029" lon="1.84996">
        <ele>130</ele>
        <time>2023-01-10T08:30:21Z</time>
      </trkpt>
      <trkpt lat="49.05036" lon="1.84959">
        <ele>130</ele>
        <time>2023-01-10T08:30:54Z</time>
      </trkpt>
      <trkpt lat="49.05037" lon="1.84923">
        <ele>131</ele>
        <time>2023-01-10T08:31:26Z</time>
      </trkpt>
      <trkpt lat="49.05049" lon="1.84885">
        <ele>131</ele>
        <time>2023-01-10T08:32:03Z</time>
      </trkpt>
      <trkpt lat="49.05057" lon="1.84841">
        <ele>133</ele>
        <time>2023-01-10T08:32:43Z</time>
      </trkpt>
      <trkpt lat="49.05054" lon="1.84802">
        <ele>137</ele>
        <time>2023-01-10T08:33:17Z</time>
      </trkpt>
      <trkpt lat="49.05058" lon="1.84759">
        <ele>140</ele>
        <time>2023-01-10T08:33:55Z</time>
      </trkpt>
      <trkpt lat="49.05049" lon="1.8469">
        <ele>146</ele>
        <time>2023-01-10T08:34:57Z</time>
      </trkpt>
      <trkpt lat="49.05059" lon="1.84628">
        <ele>149</ele>
        <time>2023-01-10T08:35:53Z</time>
      </trkpt>
      <trkpt lat="49.05059" lon="1.84581">
        <ele>152</ele>
        <time>2023-01-10T08:36:34Z</time>
      </trkpt>
      <trkpt lat="49.05071" lon="1.84571">
        <ele>154</ele>
        <time>2023-01-10T08:36:52Z</time>
      </trkpt>
      <trkpt lat="49.05103" lon="1.84555">
        <ele>156</ele>
        <time>2023-01-10T08:37:37Z</time>
      </trkpt>
      <trkpt lat="49.05127" lon="1.84552">
        <ele>157</ele>
        <time>2023-01-10T08:38:09Z</time>
      </trkpt>
      <trkpt lat="49.05145" lon="1.84537">
        <ele>159</ele>
        <time>2023-01-10T08:38:36Z</time>
      </trkpt>
      <trkpt lat="49.05157" lon="1.84506">
        <ele>163</ele>
        <time>2023-01-10T08:39:08Z</time>
      </trkpt>
      <trkpt lat="49.05164" lon="1.84447">
        <ele>173</ele>
        <time>2023-01-10T08:40:00Z</time>
      </trkpt>
      <trkpt lat="49.05171" lon="1.84422">
        <ele>178</ele>
        <time>2023-01-10T08:40:24Z</time>
      </trkpt>
      <trkpt lat="49.05185" lon="1.84403">
        <ele>179</ele>
        <time>2023-01-10T08:40:49Z</time>
      </trkpt>
      <trkpt lat="49.05208" lon="1.84391">
        <ele>179</ele>
        <time>2023-01-10T08:41:21Z</time>
      </trkpt>
      <trkpt lat="49.05221" lon="1.84371">
        <ele>180</ele>
        <time>2023-01-10T08:41:46Z</time>
      </trkpt>
      <trkpt lat="49.05247" lon="1.8436">
        <ele>181</ele>
        <time>2023-01-10T08:42:22Z</time>
      </trkpt>
      <trkpt lat="49.05283" lon="1.84329">
        <ele>184</ele>
        <time>2023-01-10T08:43:17Z</time>
      </trkpt>
      <trkpt lat="49.05309" lon="1.84282">
        <ele>186</ele>
        <time>2023-01-10T08:44:11Z</time>
      </trkpt>
      <trkpt lat="49.05315" lon="1.84262">
        <ele>187</ele>
        <time>2023-01-10T08:44:30Z</time>
      </trkpt>
      <trkpt lat="49.05356" lon="1.84247">
        <ele>187</ele>
        <time>2023-01-10T08:45:27Z</time>
      </trkpt>
      <trkpt lat="49.05381" lon="1.84252">
        <ele>186</ele>
        <time>2023-01-10T08:46:00Z</time>
      </trkpt>
      <trkpt lat="49.05429" lon="1.84251">
        <ele>184</ele>
        <time>2023-01-10T08:47:04Z</time>
      </trkpt>
      <trkpt lat="49.05449" lon="1.84257">
        <ele>184</ele>
        <time>2023-01-10T08:47:31Z</time>
      </trkpt>
      <trkpt lat="49.055" lon="1.84258">
        <ele>185</ele>
        <time>2023-01-10T08:48:40Z</time>
      </trkpt>
      <trkpt lat="49.05516" lon="1.84266">
        <ele>186</ele>
        <time>2023-01-10T08:49:02Z</time>
      </trkpt>
      <trkpt lat="49.05545" lon="1.84263">
        <ele>187</ele>
        <time>2023-01-10T08:49:41Z</time>
      </trkpt>
      <trkpt lat="49.05568" lon="1.84315">
        <ele>188</ele>
        <time>2023-01-10T08:50:36Z</time>
      </trkpt>
      <trkpt lat="49.05586" lon="1.8432">
        <ele>189</ele>
        <time>2023-01-10T08:51:00Z</time>
      </trkpt>
      <trkpt lat="49.0561" lon="1.84337">
        <ele>190</ele>
        <time>2023-01-10T08:51:35Z</time>
      </trkpt>
      <trkpt lat="49.05617" lon="1.84362">
        <ele>188</ele>
        <time>2023-01-10T08:51:59Z</time>
      </trkpt>
      <trkpt lat="49.05632" lon="1.84374">
        <ele>188</ele>
        <time>2023-01-10T08:52:22Z</time>
      </trkpt>
      <trkpt lat="49.05681" lon="1.84381">
        <ele>191</ele>
        <time>2023-01-10T08:53:27Z</time>
      </trkpt>
      <trkpt lat="49.05702" lon="1.84405">
        <ele>190</ele>
        <time>2023-01-10T08:54:02Z</time>
      </trkpt>
      <trkpt lat="49.0574" lon="1.84422">
        <ele>193</ele>
        <time>2023-01-10T08:54:55Z</time>
      </trkpt>
      <trkpt lat="49.05753" lon="1.84441">
        <ele>192</ele>
        <time>2023-01-10T08:55:19Z</time>
      </trkpt>
      <trkpt lat="49.05776" lon="1.84436">
        <ele>193</ele>
        <time>2023-01-10T08:55:50Z</time>
      </trkpt>
      <trkpt lat="49.05794" lon="1.84459">
        <ele>192</ele>
        <time>2023-01-10T08:56:22Z</time>
      </trkpt>
      <trkpt lat="49.05798" lon="1.84471">
        <ele>191</ele>
        <time>2023-01-10T08:56:33Z</time>
      </trkpt>
      <trkpt lat="49.05809" lon="1.84479">
        <ele>191</ele>
        <time>2023-01-10T08:56:50Z</time>
      </trkpt>
      <trkpt lat="49.05832" lon="1.84509">
        <ele>190</ele>
        <time>2023-01-10T08:57:30Z</time>
      </trkpt>
      <trkpt lat="49.05843" lon="1.84561">
        <ele>184</ele>
        <time>2023-01-10T08:58:18Z</time>
      </trkpt>
      <trkpt lat="49.05852" lon="1.84564">
        <ele>184</ele>
        <time>2023-01-10T08:58:30Z</time>
      </trkpt>
      <trkpt lat="49.05863" lon="1.84577">
        <ele>184</ele>
        <time>2023-01-10T08:58:49Z</time>
      </trkpt>
      <trkpt lat="49.05881" lon="1.84577">
        <ele>185</ele>
        <time>2023-01-10T08:59:13Z</time>
      </trkpt>
      <trkpt lat="49.05918" lon="1.84604">
        <ele>183</ele>
        <time>2023-01-10T09:00:07Z</time>
      </trkpt>
      <trkpt lat="49.05933" lon="1.84618">
        <ele>180</ele>
        <time>2023-01-10T09:00:31Z</time>
      </trkpt>
      <trkpt lat="49.05958" lon="1.8468">
        <ele>169</ele>
        <time>2023-01-10T09:01:35Z</time>
      </trkpt>
      <trkpt lat="49.05967" lon="1.84679">
        <ele>169</ele>
        <time>2023-01-10T09:01:47Z</time>
      </trkpt>
      <trkpt lat="49.05974" lon="1.84673">
        <ele>170</ele>
        <time>2023-01-10T09:01:57Z</time>
      </trkpt>
      <trkpt lat="49.05995" lon="1.84697">
        <ele>169</ele>
        <time>2023-01-10T09:02:32Z</time>
      </trkpt>
      <trkpt lat="49.06016" lon="1.84685">
        <ele>169</ele>
        <time>2023-01-10T09:03:02Z</time>
      </trkpt>
      <trkpt lat="49.06029" lon="1.847">
        <ele>167</ele>
        <time>2023-01-10T09:03:24Z</time>
      </trkpt>
      <trkpt lat="49.06037" lon="1.84702">
        <ele>167</ele>
        <time>2023-01-10T09:03:35Z</time>
      </trkpt>
      <trkpt lat="49.06073" lon="1.84662">
        <ele>168</ele>
        <time>2023-01-10T09:04:34Z</time>
      </trkpt>
      <trkpt lat="49.06129" lon="1.84632">
        <ele>166</ele>
        <time>2023-01-10T09:05:53Z</time>
      </trkpt>
      <trkpt lat="49.06146" lon="1.84615">
        <ele>165</ele>
        <time>2023-01-10T09:06:21Z</time>
      </trkpt>
      <trkpt lat="49.0617" lon="1.84555">
        <ele>165</ele>
        <time>2023-01-10T09:07:22Z</time>
      </trkpt>
      <trkpt lat="49.06192" lon="1.84525">
        <ele>165</ele>
        <time>2023-01-10T09:08:01Z</time>
      </trkpt>
      <trkpt lat="49.06204" lon="1.84544">
        <ele>165</ele>
        <time>2023-01-10T09:08:24Z</time>
      </trkpt>
      <trkpt lat="49.06201" lon="1.84573">
        <ele>164</ele>
        <time>2023-01-10T09:08:50Z</time>
      </trkpt>
      <trkpt lat="49.06206" lon="1.84599">
        <ele>164</ele>
        <time>2023-01-10T09:09:14Z</time>
      </trkpt>
      <trkpt lat="49.06225" lon="1.84633">
        <ele>164</ele>
        <time>2023-01-10T09:09:53Z</time>
      </trkpt>
      <trkpt lat="49.06231" lon="1.84657">
        <ele>164</ele>
        <time>2023-01-10T09:10:15Z</time>
      </trkpt>
      <trkpt lat="49.06242" lon="1.84676">
        <ele>164</ele>
        <time>2023-01-10T09:10:38Z</time>
      </trkpt>
      <trkpt lat="49.06287" lon="1.84723">
        <ele>167</ele>
        <time>2023-01-10T09:11:50Z</time>
      </trkpt>
      <trkpt lat="49.06299" lon="1.84747">
        <ele>166</ele>
        <time>2023-01-10T09:12:17Z</time>
      </trkpt>
      <trkpt lat="49.06315" lon="1.84699">
        <ele>172</ele>
        <time>2023-01-10T09:13:04Z</time>
      </trkpt>
      <trkpt lat="49.06333" lon="1.84677">
        <ele>177</ele>
        <time>2023-01-10T09:13:35Z</time>
      </trkpt>
      <trkpt lat="49.0635" lon="1.84625">
        <ele>180</ele>
        <time>2023-01-10T09:14:25Z</time>
      </trkpt>
      <trkpt lat="49.06356" lon="1.8462">
        <ele>181</ele>
        <time>2023-01-10T09:14:35Z</time>
      </trkpt>
      <trkpt lat="49.06372" lon="1.84643">
        <ele>183</ele>
        <time>2023-01-10T09:15:04Z</time>
      </trkpt>
      <trkpt lat="49.06388" lon="1.84653">
        <ele>185</ele>
        <time>2023-01-10T09:15:27Z</time>
      </trkpt>
      <trkpt lat="49.06392" lon="1.84647">
        <ele>185</ele>
        <time>2023-01-10T09:15:34Z</time>
      </trkpt>
      <trkpt lat="49.06391" lon="1.84655">
        <ele>185</ele>
        <time>2023-01-10T09:15:42Z</time>
      </trkpt>
      <trkpt lat="49.06389" lon="1.8465">
        <ele>185</ele>
        <time>2023-01-10T09:15:47Z</time>
      </trkpt>
      <trkpt lat="49.06395" lon="1.8465">
        <ele>186</ele>
        <time>2023-01-10T09:15:55Z</time>
      </trkpt>
      <trkpt lat="49.06433" lon="1.84681">
        <ele>188</ele>
        <time>2023-01-10T09:16:52Z</time>
      </trkpt>
      <trkpt lat="49.06458" lon="1.84689">
        <ele>190</ele>
        <time>2023-01-10T09:17:26Z</time>
      </trkpt>
      <trkpt lat="49.06482" lon="1.84706">
        <ele>191</ele>
        <time>2023-01-10T09:18:02Z</time>
      </trkpt>
      <trkpt lat="49.06489" lon="1.84707">
        <ele>191</ele>
        <time>2023-01-10T09:18:11Z</time>
      </trkpt>
      <trkpt lat="49.06521" lon="1.84731">
        <ele>193</ele>
        <time>2023-01-10T09:18:59Z</time>
      </trkpt>
      <trkpt lat="49.06543" lon="1.84755">
        <ele>193</ele>
        <time>2023-01-10T09:19:35Z</time>
      </trkpt>
      <trkpt lat="49.06582" lon="1.84773">
        <ele>194</ele>
        <time>2023-01-10T09:20:29Z</time>
      </trkpt>
      <trkpt lat="49.06595" lon="1.84785">
        <ele>194</ele>
        <time>2023-01-10T09:20:49Z</time>
      </trkpt>
      <trkpt lat="49.06599" lon="1.84801">
        <ele>194</ele>
        <time>2023-01-10T09:21:04Z</time>
      </trkpt>
      <trkpt lat="49.06625" lon="1.84846">
        <ele>194</ele>
        <time>2023-01-10T09:21:57Z</time>
      </trkpt>
      <trkpt lat="49.06638" lon="1.84879">
        <ele>193</ele>
        <time>2023-01-10T09:22:30Z</time>
      </trkpt>
      <trkpt lat="49.0668" lon="1.84947">
        <ele>194</ele>
        <time>2023-01-10T09:23:52Z</time>
      </trkpt>
      <trkpt lat="49.06726" lon="1.85082">
        <ele>190</ele>
        <time>2023-01-10T09:26:05Z</time>
      </trkpt>
      <trkpt lat="49.0673" lon="1.85083">
        <ele>191</ele>
        <time>2023-01-10T09:26:10Z</time>
      </trkpt>
      <trkpt lat="49.06737" lon="1.85098">
        <ele>191</ele>
        <time>2023-01-10T09:26:27Z</time>
      </trkpt>
      <trkpt lat="49.06776" lon="1.85121">
        <ele>189</ele>
        <time>2023-01-10T09:27:22Z</time>
      </trkpt>
      <trkpt lat="49.06794" lon="1.85119">
        <ele>186</ele>
        <time>2023-01-10T09:27:46Z</time>
      </trkpt>
      <trkpt lat="49.06805" lon="1.85122">
        <ele>185</ele>
        <time>2023-01-10T09:28:01Z</time>
      </trkpt>
      <trkpt lat="49.06847" lon="1.85227">
        <ele>181</ele>
        <time>2023-01-10T09:29:49Z</time>
      </trkpt>
      <trkpt lat="49.06857" lon="1.85312">
        <ele>180</ele>
        <time>2023-01-10T09:31:04Z</time>
      </trkpt>
      <trkpt lat="49.06885" lon="1.85354">
        <ele>174</ele>
        <time>2023-01-10T09:31:57Z</time>
      </trkpt>
      <trkpt lat="49.06891" lon="1.85383">
        <ele>172</ele>
        <time>2023-01-10T09:32:23Z</time>
      </trkpt>
      <trkpt lat="49.0689" lon="1.85399">
        <ele>171</ele>
        <time>2023-01-10T09:32:37Z</time>
      </trkpt>
      <trkpt lat="49.06875" lon="1.85435">
        <ele>172</ele>
        <time>2023-01-10T09:33:15Z</time>
      </trkpt>
      <trkpt lat="49.06875" lon="1.8546">
        <ele>169</ele>
        <time>2023-01-10T09:33:37Z</time>
      </trkpt>
      <trkpt lat="49.06856" lon="1.85584">
        <ele>162</ele>
        <time>2023-01-10T09:35:28Z</time>
      </trkpt>
      <trkpt lat="49.06838" lon="1.85602">
        <ele>163</ele>
        <time>2023-01-10T09:35:57Z</time>
      </trkpt>
      <trkpt lat="49.06808" lon="1.85653">
        <ele>164</ele>
        <time>2023-01-10T09:36:57Z</time>
      </trkpt>
      <trkpt lat="49.06787" lon="1.85675">
        <ele>163</ele>
        <time>2023-01-10T09:37:31Z</time>
      </trkpt>
      <trkpt lat="49.06735" lon="1.85753">
        <ele>163</ele>
        <time>2023-01-10T09:39:08Z</time>
      </trkpt>
      <trkpt lat="49.06687" lon="1.85789">
        <ele>161</ele>
        <time>2023-01-10T09:40:19Z</time>
      </trkpt>
      <trkpt lat="49.06672" lon="1.8579">
        <ele>159</ele>
        <time>2023-01-10T09:40:39Z</time>
      </trkpt>
      <trkpt lat="49.06652" lon="1.85779">
        <ele>157</ele>
        <time>2023-01-10T09:41:08Z</time>
      </trkpt>
      <trkpt lat="49.06646" lon="1.85781">
        <ele>157</ele>
        <time>2023-01-10T09:41:16Z</time>
      </trkpt>
      <trkpt lat="49.06612" lon="1.85818">
        <ele>158</ele>
        <time>2023-01-10T09:42:12Z</time>
      </trkpt>
      <trkpt lat="49.06601" lon="1.85824">
        <ele>158</ele>
        <time>2023-01-10T09:42:27Z</time>
      </trkpt>
      <trkpt lat="49.06596" lon="1.85821">
        <ele>157</ele>
        <time>2023-01-10T09:42:34Z</time>
      </trkpt>
      <trkpt lat="49.06586" lon="1.85833">
        <ele>157</ele>
        <time>2023-01-10T09:42:51Z</time>
      </trkpt>
      <trkpt lat="49.06562" lon="1.8585">
        <ele>158</ele>
        <time>2023-01-10T09:43:27Z</time>
      </trkpt>
      <trkpt lat="49.06562" lon="1.85876">
        <ele>159</ele>
        <time>2023-01-10T09:43:49Z</time>
      </trkpt>
      <trkpt lat="49.06573" lon="1.85921">
        <ele>162</ele>
        <time>2023-01-10T09:44:31Z</time>
      </trkpt>
      <trkpt lat="49.06583" lon="1.8594">
        <ele>161</ele>
        <time>2023-01-10T09:44:53Z</time>
      </trkpt>
      <trkpt lat="49.06582" lon="1.85913">
        <ele>162</ele>
        <time>2023-01-10T09:45:16Z</time>
      </trkpt>
      <trkpt lat="49.06568" lon="1.85873">
        <ele>159</ele>
        <time>2023-01-10T09:45:56Z</time>
      </trkpt>
      <trkpt lat="49.06565" lon="1.85848">
        <ele>158</ele>
        <time>2023-01-10T09:46:18Z</time>
      </trkpt>
      <trkpt lat="49.0656" lon="1.85842">
        <ele>158</ele>
        <time>2023-01-10T09:46:27Z</time>
      </trkpt>
      <trkpt lat="49.06553" lon="1.85842">
        <ele>158</ele>
        <time>2023-01-10T09:46:36Z</time>
      </trkpt>
      <trkpt lat="49.06528" lon="1.85893">
        <ele>160</ele>
        <time>2023-01-10T09:47:32Z</time>
      </trkpt>
      <trkpt lat="49.06515" lon="1.85907">
        <ele>160</ele>
        <time>2023-01-10T09:47:53Z</time>
      </trkpt>
      <trkpt lat="49.06513" lon="1.85936">
        <ele>160</ele>
        <time>2023-01-10T09:48:18Z</time>
      </trkpt>
      <trkpt lat="49.06503" lon="1.85983">
        <ele>158</ele>
        <time>2023-01-10T09:49:02Z</time>
      </trkpt>
      <trkpt lat="49.06497" lon="1.85999">
        <ele>158</ele>
        <time>2023-01-10T09:49:18Z</time>
      </trkpt>
      <trkpt lat="49.06479" lon="1.86021">
        <ele>157</ele>
        <time>2023-01-10T09:49:49Z</time>
      </trkpt>
      <trkpt lat="49.06478" lon="1.86047">
        <ele>156</ele>
        <time>2023-01-10T09:50:11Z</time>
      </trkpt>
      <trkpt lat="49.06473" lon="1.86048">
        <ele>156</ele>
        <time>2023-01-10T09:50:18Z</time>
      </trkpt>
      <trkpt lat="49.06473" lon="1.86102">
        <ele>154</ele>
        <time>2023-01-10T09:51:05Z</time>
      </trkpt>
      <trkpt lat="49.06482" lon="1.86145">
        <ele>152</ele>
        <time>2023-01-10T09:51:45Z</time>
      </trkpt>
      <trkpt lat="49.06493" lon="1.86175">
        <ele>151</ele>
        <time>2023-01-10T09:52:15Z</time>
      </trkpt>
      <trkpt lat="49.06494" lon="1.86218">
        <ele>149</ele>
        <time>2023-01-10T09:52:52Z</time>
      </trkpt>
      <trkpt lat="49.06489" lon="1.86254">
        <ele>147</ele>
        <time>2023-01-10T09:53:25Z</time>
      </trkpt>
      <trkpt lat="49.06493" lon="1.86307">
        <ele>145</ele>
        <time>2023-01-10T09:54:11Z</time>
      </trkpt>
      <trkpt lat="49.06521" lon="1.86385">
        <ele>141</ele>
        <time>2023-01-10T09:55:29Z</time>
      </trkpt>
      <trkpt lat="49.06524" lon="1.86438">
        <ele>138</ele>
        <time>2023-01-10T09:56:15Z</time>
      </trkpt>
      <trkpt lat="49.06534" lon="1.8647">
        <ele>135</ele>
        <time>2023-01-10T09:56:46Z</time>
      </trkpt>
      <trkpt lat="49.06542" lon="1.8653">
        <ele>129</ele>
        <time>2023-01-10T09:57:40Z</time>
      </trkpt>
      <trkpt lat="49.06559" lon="1.86574">
        <ele>126</ele>
        <time>2023-01-10T09:58:25Z</time>
      </trkpt>
      <trkpt lat="49.06557" lon="1.86592">
        <ele>125</ele>
        <time>2023-01-10T09:58:41Z</time>
      </trkpt>
      <trkpt lat="49.06542" lon="1.86613">
        <ele>124</ele>
        <time>2023-01-10T09:59:08Z</time>
      </trkpt>
      <trkpt lat="49.06532" lon="1.86641">
        <ele>122</ele>
        <time>2023-01-10T09:59:36Z</time>
      </trkpt>
      <trkpt lat="49.06536" lon="1.8668">
        <ele>121</ele>
        <time>2023-01-10T10:00:10Z</time>
      </trkpt>
      <trkpt lat="49.06544" lon="1.86707">
        <ele>121</ele>
        <time>2023-01-10T10:00:36Z</time>
      </trkpt>
      <trkpt lat="49.06577" lon="1.86727">
        <ele>122</ele>
        <time>2023-01-10T10:01:23Z</time>
      </trkpt>
      <trkpt lat="49.06594" lon="1.8672">
        <ele>124</ele>
        <time>2023-01-10T10:01:47Z</time>
      </trkpt>
      <trkpt lat="49.06604" lon="1.8671">
        <ele>125</ele>
        <time>2023-01-10T10:02:03Z</time>
      </trkpt>
      <trkpt lat="49.06617" lon="1.86686">
        <ele>127</ele>
        <time>2023-01-10T10:02:30Z</time>
      </trkpt>
      <trkpt lat="49.06655" lon="1.86646">
        <ele>132</ele>
        <time>2023-01-10T10:03:32Z</time>
      </trkpt>
      <trkpt lat="49.06664" lon="1.86631">
        <ele>133</ele>
        <time>2023-01-10T10:03:50Z</time>
      </trkpt>
      <trkpt lat="49.06683" lon="1.86615">
        <ele>136</ele>
        <time>2023-01-10T10:04:19Z</time>
      </trkpt>
      <trkpt lat="49.06695" lon="1.86592">
        <ele>139</ele>
        <time>2023-01-10T10:04:44Z</time>
      </trkpt>
      <trkpt lat="49.06702" lon="1.86591">
        <ele>141</ele>
        <time>2023-01-10T10:04:54Z</time>
      </trkpt>
      <trkpt lat="49.06743" lon="1.86608">
        <ele>146</ele>
        <time>2023-01-10T10:05:50Z</time>
      </trkpt>
      <trkpt lat="49.06763" lon="1.86621">
        <ele>147</ele>
        <time>2023-01-10T10:06:19Z</time>
      </trkpt>
      <trkpt lat="49.06775" lon="1.86622">
        <ele>147</ele>
        <time>2023-01-10T10:06:35Z</time>
      </trkpt>
      <trkpt lat="49.06798" lon="1.86648">
        <ele>146</ele>
        <time>2023-01-10T10:07:14Z</time>
      </trkpt>
      <trkpt lat="49.06843" lon="1.86684">
        <ele>145</ele>
        <time>2023-01-10T10:08:21Z</time>
      </trkpt>
      <trkpt lat="49.06876" lon="1.86728">
        <ele>145</ele>
        <time>2023-01-10T10:09:20Z</time>
      </trkpt>
      <trkpt lat="49.06889" lon="1.86728">
        <ele>146</ele>
        <time>2023-01-10T10:09:37Z</time>
      </trkpt>
      <trkpt lat="49.06914" lon="1.86715">
        <ele>147</ele>
        <time>2023-01-10T10:10:12Z</time>
      </trkpt>
      <trkpt lat="49.06927" lon="1.86695">
        <ele>147</ele>
        <time>2023-01-10T10:10:37Z</time>
      </trkpt>
      <trkpt lat="49.06962" lon="1.86609">
        <ele>150</ele>
        <time>2023-01-10T10:12:06Z</time>
      </trkpt>
      <trkpt lat="49.06969" lon="1.86569">
        <ele>153</ele>
        <time>2023-01-10T10:12:42Z</time>
      </trkpt>
      <trkpt lat="49.06973" lon="1.86562">
        <ele>154</ele>
        <time>2023-01-10T10:12:50Z</time>
      </trkpt>
      <trkpt lat="49.06991" lon="1.8655">
        <ele>154</ele>
        <time>2023-01-10T10:13:16Z</time>
      </trkpt>
      <trkpt lat="49.06999" lon="1.86509">
        <ele>157</ele>
        <time>2023-01-10T10:13:53Z</time>
      </trkpt>
      <trkpt lat="49.06998" lon="1.86486">
        <ele>158</ele>
        <time>2023-01-10T10:14:14Z</time>
      </trkpt>
      <trkpt lat="49.07032" lon="1.86451">
        <ele>158</ele>
        <time>2023-01-10T10:15:08Z</time>
      </trkpt>
      <trkpt lat="49.07056" lon="1.86447">
        <ele>157</ele>
        <time>2023-01-10T10:15:41Z</time>
      </trkpt>
      <trkpt lat="49.07089" lon="1.86417">
        <ele>157</ele>
        <time>2023-01-10T10:16:32Z</time>
      </trkpt>
      <trkpt lat="49.07088" lon="1.864">
        <ele>158</ele>
        <time>2023-01-10T10:16:47Z</time>
      </trkpt>
      <trkpt lat="49.07093" lon="1.8639">
        <ele>157</ele>
        <time>2023-01-10T10:16:58Z</time>
      </trkpt>
      <trkpt lat="49.07095" lon="1.86368">
        <ele>157</ele>
        <time>2023-01-10T10:17:17Z</time>
      </trkpt>
      <trkpt lat="49.07123" lon="1.86338">
        <ele>153</ele>
        <time>2023-01-10T10:18:03Z</time>
      </trkpt>
      <trkpt lat="49.0712" lon="1.86301">
        <ele>152</ele>
        <time>2023-01-10T10:18:35Z</time>
      </trkpt>
      <trkpt lat="49.07088" lon="1.86249">
        <ele>152</ele>
        <time>2023-01-10T10:19:38Z</time>
      </trkpt>
      <trkpt lat="49.07078" lon="1.86214">
        <ele>151</ele>
        <time>2023-01-10T10:20:11Z</time>
      </trkpt>
      <trkpt lat="49.0708" lon="1.86205">
        <ele>150</ele>
        <time>2023-01-10T10:20:19Z</time>
      </trkpt>
      <trkpt lat="49.07073" lon="1.86187">
        <ele>150</ele>
        <time>2023-01-10T10:20:38Z</time>
      </trkpt>
      <trkpt lat="49.07061" lon="1.86161">
        <ele>151</ele>
        <time>2023-01-10T10:21:06Z</time>
      </trkpt>
      <trkpt lat="49.07029" lon="1.86117">
        <ele>154</ele>
        <time>2023-01-10T10:22:03Z</time>
      </trkpt>
      <trkpt lat="49.07019" lon="1.8609">
        <ele>154</ele>
        <time>2023-01-10T10:22:30Z</time>
      </trkpt>
      <trkpt lat="49.07001" lon="1.8606">
        <ele>156</ele>
        <time>2023-01-10T10:23:06Z</time>
      </trkpt>
      <trkpt lat="49.06981" lon="1.85993">
        <ele>157</ele>
        <time>2023-01-10T10:24:10Z</time>
      </trkpt>
      <trkpt lat="49.06979" lon="1.85963">
        <ele>157</ele>
        <time>2023-01-10T10:24:36Z</time>
      </trkpt>
      <trkpt lat="49.06987" lon="1.85948">
        <ele>155</ele>
        <time>2023-01-10T10:24:53Z</time>
      </trkpt>
      <trkpt lat="49.06996" lon="1.85947">
        <ele>154</ele>
        <time>2023-01-10T10:25:05Z</time>
      </trkpt>
      <trkpt lat="49.07006" lon="1.85929">
        <ele>153</ele>
        <time>2023-01-10T10:25:26Z</time>
      </trkpt>
      <trkpt lat="49.07016" lon="1.85847">
        <ele>152</ele>
        <time>2023-01-10T10:26:39Z</time>
      </trkpt>
      <trkpt lat="49.07038" lon="1.85817">
        <ele>149</ele>
        <time>2023-01-10T10:27:18Z</time>
      </trkpt>
      <trkpt lat="49.07072" lon="1.85707">
        <ele>145</ele>
        <time>2023-01-10T10:29:05Z</time>
      </trkpt>
      <trkpt lat="49.07095" lon="1.85651">
        <ele>142</ele>
        <time>2023-01-10T10:30:02Z</time>
      </trkpt>
      <trkpt lat="49.07105" lon="1.85569">
        <ele>143</ele>
        <time>2023-01-10T10:31:15Z</time>
      </trkpt>
      <trkpt lat="49.07122" lon="1.85547">
        <ele>142</ele>
        <time>2023-01-10T10:31:45Z</time>
      </trkpt>
      <trkpt lat="49.07121" lon="1.85523">
        <ele>143</ele>
        <time>2023-01-10T10:32:06Z</time>
      </trkpt>
      <trkpt lat="49.07125" lon="1.8551">
        <ele>144</ele>
        <time>2023-01-10T10:32:19Z</time>
      </trkpt>
      <trkpt lat="49.07145" lon="1.85484">
        <ele>143</ele>
        <time>2023-01-10T10:32:54Z</time>
      </trkpt>
      <trkpt lat="49.07155" lon="1.85464">
        <ele>144</ele>
        <time>2023-01-10T10:33:16Z</time>
      </trkpt>
      <trkpt lat="49.07154" lon="1.85448">
        <ele>145</ele>
        <time>2023-01-10T10:33:30Z</time>
      </trkpt>
      <trkpt lat="49.0716" lon="1.85418">
        <ele>145</ele>
        <time>2023-01-10T10:33:57Z</time>
      </trkpt>
      <trkpt lat="49.07166" lon="1.85402">
        <ele>145</ele>
        <time>2023-01-10T10:34:13Z</time>
      </trkpt>
      <trkpt lat="49.07184" lon="1.85381">
        <ele>145</ele>
        <time>2023-01-10T10:34:44Z</time>
      </trkpt>
      <trkpt lat="49.07185" lon="1.85372">
        <ele>145</ele>
        <time>2023-01-10T10:34:52Z</time>
      </trkpt>
      <trkpt lat="49.07183" lon="1.85364">
        <ele>145</ele>
        <time>2023-01-10T10:34:59Z</time>
      </trkpt>
      <trkpt lat="49.07167" lon="1.85372">
        <ele>146</ele>
        <time>2023-01-10T10:35:22Z</time>
      </trkpt>
      <trkpt lat="49.07157" lon="1.85371">
        <ele>146</ele>
        <time>2023-01-10T10:35:35Z</time>
      </trkpt>
      <trkpt lat="49.07102" lon="1.8532">
        <ele>150</ele>
        <time>2023-01-10T10:37:01Z</time>
      </trkpt>
      <trkpt lat="49.07062" lon="1.85296">
        <ele>152</ele>
        <time>2023-01-10T10:37:58Z</time>
      </trkpt>
      <trkpt lat="49.0705" lon="1.85293">
        <ele>153</ele>
        <time>2023-01-10T10:38:14Z</time>
      </trkpt>
      <trkpt lat="49.07022" lon="1.85268">
        <ele>154</ele>
        <time>2023-01-10T10:38:58Z</time>
      </trkpt>
      <trkpt lat="49.06995" lon="1.85256">
        <ele>156</ele>
        <time>2023-01-10T10:39:35Z</time>
      </trkpt>
      <trkpt lat="49.06979" lon="1.85257">
        <ele>158</ele>
        <time>2023-01-10T10:39:57Z</time>
      </trkpt>
      <trkpt lat="49.06956" lon="1.85249">
        <ele>160</ele>
        <time>2023-01-10T10:40:28Z</time>
      </trkpt>
      <trkpt lat="49.06935" lon="1.85249">
        <ele>163</ele>
        <time>2023-01-10T10:40:56Z</time>
      </trkpt>
      <trkpt lat="49.06922" lon="1.85239">
        <ele>164</ele>
        <time>2023-01-10T10:41:15Z</time>
      </trkpt>
      <trkpt lat="49.06908" lon="1.85238">
        <ele>167</ele>
        <time>2023-01-10T10:41:34Z</time>
      </trkpt>
      <trkpt lat="49.06884" lon="1.85246">
        <ele>173</ele>
        <time>2023-01-10T10:42:07Z</time>
      </trkpt>
      <trkpt lat="49.06884" lon="1.85223">
        <ele>173</ele>
        <time>2023-01-10T10:42:27Z</time>
      </trkpt>
      <trkpt lat="49.06905" lon="1.85203">
        <ele>168</ele>
        <time>2023-01-10T10:43:00Z</time>
      </trkpt>
      <trkpt lat="49.06923" lon="1.85148">
        <ele>165</ele>
        <time>2023-01-10T10:43:54Z</time>
      </trkpt>
      <trkpt lat="49.06944" lon="1.85115">
        <ele>163</ele>
        <time>2023-01-10T10:44:34Z</time>
      </trkpt>
      <trkpt lat="49.06968" lon="1.85056">
        <ele>161</ele>
        <time>2023-01-10T10:45:35Z</time>
      </trkpt>
      <trkpt lat="49.06976" lon="1.84978">
        <ele>163</ele>
        <time>2023-01-10T10:46:44Z</time>
      </trkpt>
      <trkpt lat="49.06996" lon="1.84921">
        <ele>164</ele>
        <time>2023-01-10T10:47:40Z</time>
      </trkpt>
      <trkpt lat="49.06976" lon="1.84909">
        <ele>167</ele>
        <time>2023-01-10T10:48:09Z</time>
      </trkpt>
      <trkpt lat="49.06948" lon="1.84912">
        <ele>169</ele>
        <time>2023-01-10T10:48:46Z</time>
      </trkpt>
      <trkpt lat="49.06928" lon="1.84905">
        <ele>171</ele>
        <time>2023-01-10T10:49:14Z</time>
      </trkpt>
      <trkpt lat="49.0688" lon="1.84878">
        <ele>181</ele>
        <time>2023-01-10T10:50:22Z</time>
      </trkpt>
      <trkpt lat="49.06855" lon="1.84856">
        <ele>187</ele>
        <time>2023-01-10T10:51:01Z</time>
      </trkpt>
      <trkpt lat="49.0682" lon="1.84856">
        <ele>191</ele>
        <time>2023-01-10T10:51:47Z</time>
      </trkpt>
      <trkpt lat="49.06812" lon="1.84828">
        <ele>194</ele>
        <time>2023-01-10T10:52:14Z</time>
      </trkpt>
      <trkpt lat="49.06812" lon="1.84794">
        <ele>196</ele>
        <time>2023-01-10T10:52:44Z</time>
      </trkpt>
      <trkpt lat="49.06815" lon="1.8479">
        <ele>196</ele>
        <time>2023-01-10T10:52:49Z</time>
      </trkpt>
      <trkpt lat="49.06809" lon="1.84789">
        <ele>196</ele>
        <time>2023-01-10T10:52:57Z</time>
      </trkpt>
      <trkpt lat="49.06807" lon="1.84795">
        <ele>196</ele>
        <time>2023-01-10T10:53:03Z</time>
      </trkpt>
      <trkpt lat="49.06812" lon="1.84761">
        <ele>197</ele>
        <time>2023-01-10T10:53:33Z</time>
      </trkpt>
      <trkpt lat="49.06825" lon="1.8473">
        <ele>199</ele>
        <time>2023-01-10T10:54:06Z</time>
      </trkpt>
      <trkpt lat="49.06841" lon="1.84717">
        <ele>199</ele>
        <time>2023-01-10T10:54:30Z</time>
      </trkpt>
      <trkpt lat="49.06849" lon="1.84699">
        <ele>200</ele>
        <time>2023-01-10T10:54:49Z</time>
      </trkpt>
      <trkpt lat="49.06874" lon="1.84586">
        <ele>200</ele>
        <time>2023-01-10T10:56:33Z</time>
      </trkpt>
      <trkpt lat="49.06887" lon="1.8456">
        <ele>199</ele>
        <time>2023-01-10T10:57:02Z</time>
      </trkpt>
      <trkpt lat="49.06893" lon="1.84519">
        <ele>197</ele>
        <time>2023-01-10T10:57:38Z</time>
      </trkpt>
      <trkpt lat="49.06892" lon="1.84495">
        <ele>196</ele>
        <time>2023-01-10T10:57:59Z</time>
      </trkpt>
      <trkpt lat="49.06903" lon="1.8448">
        <ele>195</ele>
        <time>2023-01-10T10:58:19Z</time>
      </trkpt>
      <trkpt lat="49.06906" lon="1.84467">
        <ele>194</ele>
        <time>2023-01-10T10:58:31Z</time>
      </trkpt>
      <trkpt lat="49.06901" lon="1.84423">
        <ele>189</ele>
        <time>2023-01-10T10:59:10Z</time>
      </trkpt>
      <trkpt lat="49.06906" lon="1.84366">
        <ele>186</ele>
        <time>2023-01-10T11:00:01Z</time>
      </trkpt>
      <trkpt lat="49.06903" lon="1.84339">
        <ele>185</ele>
        <time>2023-01-10T11:00:24Z</time>
      </trkpt>
      <trkpt lat="49.06906" lon="1.843">
        <ele>184</ele>
        <time>2023-01-10T11:00:59Z</time>
      </trkpt>
      <trkpt lat="49.06897" lon="1.84234">
        <ele>183</ele>
        <time>2023-01-10T11:01:58Z</time>
      </trkpt>
      <trkpt lat="49.06898" lon="1.84195">
        <ele>183</ele>
        <time>2023-01-10T11:02:32Z</time>
      </trkpt>
      <trkpt lat="49.06901" lon="1.84181">
        <ele>184</ele>
        <time>2023-01-10T11:02:45Z</time>
      </trkpt>
      <trkpt lat="49.06911" lon="1.84169">
        <ele>185</ele>
        <time>2023-01-10T11:03:02Z</time>
      </trkpt>
      <trkpt lat="49.0693" lon="1.84104">
        <ele>189</ele>
        <time>2023-01-10T11:04:04Z</time>
      </trkpt>
      <trkpt lat="49.0695" lon="1.84074">
        <ele>193</ele>
        <time>2023-01-10T11:04:41Z</time>
      </trkpt>
      <trkpt lat="49.06948" lon="1.8406">
        <ele>193</ele>
        <time>2023-01-10T11:04:54Z</time>
      </trkpt>
      <trkpt lat="49.06954" lon="1.84036">
        <ele>195</ele>
        <time>2023-01-10T11:05:16Z</time>
      </trkpt>
      <trkpt lat="49.06978" lon="1.8397">
        <ele>199</ele>
        <time>2023-01-10T11:06:22Z</time>
      </trkpt>
      <trkpt lat="49.06986" lon="1.83958">
        <ele>200</ele>
        <time>2023-01-10T11:06:37Z</time>
      </trkpt>
      <trkpt lat="49.06986" lon="1.83931">
        <ele>199</ele>
        <time>2023-01-10T11:07:01Z</time>
      </trkpt>
      <trkpt lat="49.07007" lon="1.83913">
        <ele>201</ele>
        <time>2023-01-10T11:07:33Z</time>
      </trkpt>
      <trkpt lat="49.07012" lon="1.83902">
        <ele>201</ele>
        <time>2023-01-10T11:07:45Z</time>
      </trkpt>
      <trkpt lat="49.07028" lon="1.83895">
        <ele>201</ele>
        <time>2023-01-10T11:08:07Z</time>
      </trkpt>
      <trkpt lat="49.07059" lon="1.83865">
        <ele>202</ele>
        <time>2023-01-10T11:08:56Z</time>
      </trkpt>
      <trkpt lat="49.07078" lon="1.83819">
        <ele>202</ele>
        <time>2023-01-10T11:09:43Z</time>
      </trkpt>
      <trkpt lat="49.07098" lon="1.83809">
        <ele>203</ele>
        <time>2023-01-10T11:10:12Z</time>
      </trkpt>
      <trkpt lat="49.07125" lon="1.83785">
        <ele>203</ele>
        <time>2023-01-10T11:10:53Z</time>
      </trkpt>
      <trkpt lat="49.07138" lon="1.8376">
        <ele>204</ele>
        <time>2023-01-10T11:11:21Z</time>
      </trkpt>
      <trkpt lat="49.07127" lon="1.83751">
        <ele>204</ele>
        <time>2023-01-10T11:11:38Z</time>
      </trkpt>
      <trkpt lat="49.07119" lon="1.83752">
        <ele>204</ele>
        <time>2023-01-10T11:11:49Z</time>
      </trkpt>
      <trkpt lat="49.07118" lon="1.83742">
        <ele>204</ele>
        <time>2023-01-10T11:11:57Z</time>
      </trkpt>
      <trkpt lat="49.07143" lon="1.83715">
        <ele>204</ele>
        <time>2023-01-10T11:12:38Z</time>
      </trkpt>
      <trkpt lat="49.07165" lon="1.83682">
        <ele>204</ele>
        <time>2023-01-10T11:13:19Z</time>
      </trkpt>
      <trkpt lat="49.07174" lon="1.83678">
        <ele>204</ele>
        <time>2023-01-10T11:13:32Z</time>
      </trkpt>
      <trkpt lat="49.07184" lon="1.83651">
        <ele>204</ele>
        <time>2023-01-10T11:13:59Z</time>
      </trkpt>
      <trkpt lat="49.07218" lon="1.83585">
        <ele>203</ele>
        <time>2023-01-10T11:15:12Z</time>
      </trkpt>
      <trkpt lat="49.07231" lon="1.83567">
        <ele>203</ele>
        <time>2023-01-10T11:15:36Z</time>
      </trkpt>
      <trkpt lat="49.07265" lon="1.83544">
        <ele>203</ele>
        <time>2023-01-10T11:16:25Z</time>
      </trkpt>
      <trkpt lat="49.07301" lon="1.83509">
        <ele>202</ele>
        <time>2023-01-10T11:17:22Z</time>
      </trkpt>
      <trkpt lat="49.07336" lon="1.8346">
        <ele>202</ele>
        <time>2023-01-10T11:18:26Z</time>
      </trkpt>
      <trkpt lat="49.07364" lon="1.83405">
        <ele>202</ele>
        <time>2023-01-10T11:19:27Z</time>
      </trkpt>
      <trkpt lat="49.07379" lon="1.83345">
        <ele>203</ele>
        <time>2023-01-10T11:20:23Z</time>
      </trkpt>
      <trkpt lat="49.07382" lon="1.83301">
        <ele>204</ele>
        <time>2023-01-10T11:21:02Z</time>
      </trkpt>
      <trkpt lat="49.07406" lon="1.83253">
        <ele>204</ele>
        <time>2023-01-10T11:21:54Z</time>
      </trkpt>
      <trkpt lat="49.07409" lon="1.8324">
        <ele>205</ele>
        <time>2023-01-10T11:22:06Z</time>
      </trkpt>
      <trkpt lat="49.07435" lon="1.83189">
        <ele>206</ele>
        <time>2023-01-10T11:23:03Z</time>
      </trkpt>
      <trkpt lat="49.07465" lon="1.83144">
        <ele>206</ele>
        <time>2023-01-10T11:23:59Z</time>
      </trkpt>
      <trkpt lat="49.07511" lon="1.83106">
        <ele>205</ele>
        <time>2023-01-10T11:25:09Z</time>
      </trkpt>
      <trkpt lat="49.07518" lon="1.83089">
        <ele>205</ele>
        <time>2023-01-10T11:25:26Z</time>
      </trkpt>
      <trkpt lat="49.07524" lon="1.83035">
        <ele>202</ele>
        <time>2023-01-10T11:26:14Z</time>
      </trkpt>
      <trkpt lat="49.07577" lon="1.82968">
        <ele>195</ele>
        <time>2023-01-10T11:27:46Z</time>
      </trkpt>
      <trkpt lat="49.07599" lon="1.8292">
        <ele>189</ele>
        <time>2023-01-10T11:28:37Z</time>
      </trkpt>
      <trkpt lat="49.07628" lon="1.82873">
        <ele>183</ele>
        <time>2023-01-10T11:29:34Z</time>
      </trkpt>
      <trkpt lat="49.07634" lon="1.82854">
        <ele>181</ele>
        <time>2023-01-10T11:29:52Z</time>
      </trkpt>
      <trkpt lat="49.07631" lon="1.82841">
        <ele>180</ele>
        <time>2023-01-10T11:30:04Z</time>
      </trkpt>
      <trkpt lat="49.0763" lon="1.82845">
        <ele>181</ele>
        <time>2023-01-10T11:30:08Z</time>
      </trkpt>
      <trkpt lat="49.0761" lon="1.82851">
        <ele>182</ele>
        <time>2023-01-10T11:30:35Z</time>
      </trkpt>
      <trkpt lat="49.07587" lon="1.82839">
        <ele>181</ele>
        <time>2023-01-10T11:31:08Z</time>
      </trkpt>
      <trkpt lat="49.07565" lon="1.82837">
        <ele>180</ele>
        <time>2023-01-10T11:31:37Z</time>
      </trkpt>
      <trkpt lat="49.07516" lon="1.82816">
        <ele>177</ele>
        <time>2023-01-10T11:32:45Z</time>
      </trkpt>
      <trkpt lat="49.07487" lon="1.82812">
        <ele>176</ele>
        <time>2023-01-10T11:33:24Z</time>
      </trkpt>
      <trkpt lat="49.07449" lon="1.82786">
        <ele>174</ele>
        <time>2023-01-10T11:34:19Z</time>
      </trkpt>
      <trkpt lat="49.07399" lon="1.82764">
        <ele>173</ele>
        <time>2023-01-10T11:35:29Z</time>
      </trkpt>
      <trkpt lat="49.07347" lon="1.82717">
        <ele>172</ele>
        <time>2023-01-10T11:36:49Z</time>
      </trkpt>
      <trkpt lat="49.07268" lon="1.8268">
        <ele>170</ele>
        <time>2023-01-10T11:38:40Z</time>
      </trkpt>
      <trkpt lat="49.07233" lon="1.82673">
        <ele>169</ele>
        <time>2023-01-10T11:39:27Z</time>
      </trkpt>
      <trkpt lat="49.07199" lon="1.82661">
        <ele>169</ele>
        <time>2023-01-10T11:40:13Z</time>
      </trkpt>
      <trkpt lat="49.0711" lon="1.82644">
        <ele>172</ele>
        <time>2023-01-10T11:42:13Z</time>
      </trkpt>
      <trkpt lat="49.07088" lon="1.82666">
        <ele>175</ele>
        <time>2023-01-10T11:42:48Z</time>
      </trkpt>
      <trkpt lat="49.07047" lon="1.82671">
        <ele>173</ele>
        <time>2023-01-10T11:43:43Z</time>
      </trkpt>
      <trkpt lat="49.0701" lon="1.82698">
        <ele>171</ele>
        <time>2023-01-10T11:44:38Z</time>
      </trkpt>
      <trkpt lat="49.06986" lon="1.82722">
        <ele>169</ele>
        <time>2023-01-10T11:45:16Z</time>
      </trkpt>
      <trkpt lat="49.06931" lon="1.82759">
        <ele>164</ele>
        <time>2023-01-10T11:46:36Z</time>
      </trkpt>
      <trkpt lat="49.06912" lon="1.82779">
        <ele>164</ele>
        <time>2023-01-10T11:47:07Z</time>
      </trkpt>
      <trkpt lat="49.06895" lon="1.82785">
        <ele>162</ele>
        <time>2023-01-10T11:47:30Z</time>
      </trkpt>
      <trkpt lat="49.06878" lon="1.82785">
        <ele>160</ele>
        <time>2023-01-10T11:47:53Z</time>
      </trkpt>
      <trkpt lat="49.06816" lon="1.82731">
        <ele>151</ele>
        <time>2023-01-10T11:49:28Z</time>
      </trkpt>
      <trkpt lat="49.06787" lon="1.82716">
        <ele>148</ele>
        <time>2023-01-10T11:50:09Z</time>
      </trkpt>
      <trkpt lat="49.06775" lon="1.82705">
        <ele>146</ele>
        <time>2023-01-10T11:50:28Z</time>
      </trkpt>
      <trkpt lat="49.06732" lon="1.82693">
        <ele>141</ele>
        <time>2023-01-10T11:51:26Z</time>
      </trkpt>
      <trkpt lat="49.06694" lon="1.82701">
        <ele>137</ele>
        <time>2023-01-10T11:52:17Z</time>
      </trkpt>
      <trkpt lat="49.06659" lon="1.82729">
        <ele>134</ele>
        <time>2023-01-10T11:53:10Z</time>
      </trkpt>
      <trkpt lat="49.06633" lon="1.82721">
        <ele>129</ele>
        <time>2023-01-10T11:53:45Z</time>
      </trkpt>
      <trkpt lat="49.06612" lon="1.82726">
        <ele>126</ele>
        <time>2023-01-10T11:54:14Z</time>
      </trkpt>
      <trkpt lat="49.06581" lon="1.82765">
        <ele>124</ele>
        <time>2023-01-10T11:55:07Z</time>
      </trkpt>
      <trkpt lat="49.0657" lon="1.82765">
        <ele>123</ele>
        <time>2023-01-10T11:55:22Z</time>
      </trkpt>
      <trkpt lat="49.06567" lon="1.82759">
        <ele>122</ele>
        <time>2023-01-10T11:55:29Z</time>
      </trkpt>
      <trkpt lat="49.06557" lon="1.82755">
        <ele>121</ele>
        <time>2023-01-10T11:55:43Z</time>
      </trkpt>
      <trkpt lat="49.06559" lon="1.8279">
        <ele>124</ele>
        <time>2023-01-10T11:56:13Z</time>
      </trkpt>
      <trkpt lat="49.06542" lon="1.82828">
        <ele>124</ele>
        <time>2023-01-10T11:56:53Z</time>
      </trkpt>
      <trkpt lat="49.06544" lon="1.82844">
        <ele>126</ele>
        <time>2023-01-10T11:57:08Z</time>
      </trkpt>
      <trkpt lat="49.0654" lon="1.82853">
        <ele>126</ele>
        <time>2023-01-10T11:57:17Z</time>
      </trkpt>
      <trkpt lat="49.06535" lon="1.82848">
        <ele>125</ele>
        <time>2023-01-10T11:57:25Z</time>
      </trkpt>
      <trkpt lat="49.06526" lon="1.82848">
        <ele>123</ele>
        <time>2023-01-10T11:57:37Z</time>
      </trkpt>
      <trkpt lat="49.06511" lon="1.8286">
        <ele>123</ele>
        <time>2023-01-10T11:58:00Z</time>
      </trkpt>
      <trkpt lat="49.06508" lon="1.82867">
        <ele>124</ele>
        <time>2023-01-10T11:58:07Z</time>
      </trkpt>
      <trkpt lat="49.06477" lon="1.82883">
        <ele>123</ele>
        <time>2023-01-10T11:58:51Z</time>
      </trkpt>
      <trkpt lat="49.0646" lon="1.82898">
        <ele>124</ele>
        <time>2023-01-10T11:59:17Z</time>
      </trkpt>
      <trkpt lat="49.06347" lon="1.82934">
        <ele>116</ele>
        <time>2023-01-10T12:01:51Z</time>
      </trkpt>
      <trkpt lat="49.06335" lon="1.82943">
        <ele>115</ele>
        <time>2023-01-10T12:02:09Z</time>
      </trkpt>
      <trkpt lat="49.06332" lon="1.82952">
        <ele>115</ele>
        <time>2023-01-10T12:02:18Z</time>
      </trkpt>
      <trkpt lat="49.06319" lon="1.82965">
        <ele>116</ele>
        <time>2023-01-10T12:02:38Z</time>
      </trkpt>
      <trkpt lat="49.06286" lon="1.82968">
        <ele>114</ele>
        <time>2023-01-10T12:03:23Z</time>
      </trkpt>
      <trkpt lat="49.06237" lon="1.8299">
        <ele>112</ele>
        <time>2023-01-10T12:04:31Z</time>
      </trkpt>
      <trkpt lat="49.06218" lon="1.82993">
        <ele>111</ele>
        <time>2023-01-10T12:04:56Z</time>
      </trkpt>
      <trkpt lat="49.06138" lon="1.83024">
        <ele>109</ele>
        <time>2023-01-10T12:06:46Z</time>
      </trkpt>
      <trkpt lat="49.06132" lon="1.83033">
        <ele>110</ele>
        <time>2023-01-10T12:06:58Z</time>
      </trkpt>
      <trkpt lat="49.06127" lon="1.83057">
        <ele>110</ele>
        <time>2023-01-10T12:07:20Z</time>
      </trkpt>
      <trkpt lat="49.06126" lon="1.8311">
        <ele>112</ele>
        <time>2023-01-10T12:08:06Z</time>
      </trkpt>
      <trkpt lat="49.06139" lon="1.83169">
        <ele>115</ele>
        <time>2023-01-10T12:09:00Z</time>
      </trkpt>
      <trkpt lat="49.06136" lon="1.83236">
        <ele>117</ele>
        <time>2023-01-10T12:09:59Z</time>
      </trkpt>
      <trkpt lat="49.06147" lon="1.83305">
        <ele>118</ele>
        <time>2023-01-10T12:11:01Z</time>
      </trkpt>
      <trkpt lat="49.06147" lon="1.83378">
        <ele>118</ele>
        <time>2023-01-10T12:12:05Z</time>
      </trkpt>
      <trkpt lat="49.06157" lon="1.83449">
        <ele>119</ele>
        <time>2023-01-10T12:13:09Z</time>
      </trkpt>
      <trkpt lat="49.06155" lon="1.83551">
        <ele>119</ele>
        <time>2023-01-10T12:14:38Z</time>
      </trkpt>
      <trkpt lat="49.06162" lon="1.83618">
        <ele>120</ele>
        <time>2023-01-10T12:15:37Z</time>
      </trkpt>
      <trkpt lat="49.06159" lon="1.83679">
        <ele>122</ele>
        <time>2023-01-10T12:16:31Z</time>
      </trkpt>
      <trkpt lat="49.06162" lon="1.83726">
        <ele>124</ele>
        <time>2023-01-10T12:17:12Z</time>
      </trkpt>
      <trkpt lat="49.06174" lon="1.83764">
        <ele>127</ele>
        <time>2023-01-10T12:17:49Z</time>
      </trkpt>
      <trkpt lat="49.06185" lon="1.83783">
        <ele>130</ele>
        <time>2023-01-10T12:18:11Z</time>
      </trkpt>
      <trkpt lat="49.06187" lon="1.83816">
        <ele>135</ele>
        <time>2023-01-10T12:18:40Z</time>
      </trkpt>
      <trkpt lat="49.06196" lon="1.83845">
        <ele>139</ele>
        <time>2023-01-10T12:19:08Z</time>
      </trkpt>
      <trkpt lat="49.06203" lon="1.83901">
        <ele>145</ele>
        <time>2023-01-10T12:19:58Z</time>
      </trkpt>
      <trkpt lat="49.06229" lon="1.83949">
        <ele>149</ele>
        <time>2023-01-10T12:20:52Z</time>
      </trkpt>
      <trkpt lat="49.06233" lon="1.83997">
        <ele>152</ele>
        <time>2023-01-10T12:21:35Z</time>
      </trkpt>
      <trkpt lat="49.06278" lon="1.84075">
        <ele>155</ele>
        <time>2023-01-10T12:23:05Z</time>
      </trkpt>
      <trkpt lat="49.06284" lon="1.84075">
        <ele>154</ele>
        <time>2023-01-10T12:23:13Z</time>
      </trkpt>
      <trkpt lat="49.06276" lon="1.84081">
        <ele>155</ele>
        <time>2023-01-10T12:23:25Z</time>
      </trkpt>
      <trkpt lat="49.06256" lon="1.84078">
        <ele>156</ele>
        <time>2023-01-10T12:23:52Z</time>
      </trkpt>
      <trkpt lat="49.06214" lon="1.8406">
        <ele>154</ele>
        <time>2023-01-10T12:24:50Z</time>
      </trkpt>
      <trkpt lat="49.06199" lon="1.8406">
        <ele>153</ele>
        <time>2023-01-10T12:25:10Z</time>
      </trkpt>
      <trkpt lat="49.06159" lon="1.84041">
        <ele>151</ele>
        <time>2023-01-10T12:26:06Z</time>
      </trkpt>
      <trkpt lat="49.06104" lon="1.84033">
        <ele>153</ele>
        <time>2023-01-10T12:27:20Z</time>
      </trkpt>
      <trkpt lat="49.0606" lon="1.84018">
        <ele>157</ele>
        <time>2023-01-10T12:28:20Z</time>
      </trkpt>
      <trkpt lat="49.0605" lon="1.84009">
        <ele>157</ele>
        <time>2023-01-10T12:28:36Z</time>
      </trkpt>
      <trkpt lat="49.06033" lon="1.8401">
        <ele>160</ele>
        <time>2023-01-10T12:28:58Z</time>
      </trkpt>
      <trkpt lat="49.06014" lon="1.84">
        <ele>161</ele>
        <time>2023-01-10T12:29:25Z</time>
      </trkpt>
      <trkpt lat="49.05993" lon="1.84003">
        <ele>164</ele>
        <time>2023-01-10T12:29:53Z</time>
      </trkpt>
      <trkpt lat="49.05957" lon="1.83996">
        <ele>170</ele>
        <time>2023-01-10T12:30:42Z</time>
      </trkpt>
      <trkpt lat="49.05936" lon="1.84002">
        <ele>174</ele>
        <time>2023-01-10T12:31:10Z</time>
      </trkpt>
      <trkpt lat="49.05924" lon="1.83995">
        <ele>176</ele>
        <time>2023-01-10T12:31:27Z</time>
      </trkpt>
      <trkpt lat="49.05911" lon="1.83979">
        <ele>177</ele>
        <time>2023-01-10T12:31:50Z</time>
      </trkpt>
      <trkpt lat="49.05912" lon="1.83975">
        <ele>176</ele>
        <time>2023-01-10T12:31:53Z</time>
      </trkpt>
      <trkpt lat="49.05903" lon="1.83974">
        <ele>177</ele>
        <time>2023-01-10T12:32:06Z</time>
      </trkpt>
      <trkpt lat="49.05889" lon="1.83965">
        <ele>178</ele>
        <time>2023-01-10T12:32:26Z</time>
      </trkpt>
      <trkpt lat="49.05851" lon="1.83966">
        <ele>183</ele>
        <time>2023-01-10T12:33:17Z</time>
      </trkpt>
      <trkpt lat="49.05829" lon="1.83961">
        <ele>184</ele>
        <time>2023-01-10T12:33:46Z</time>
      </trkpt>
      <trkpt lat="49.05816" lon="1.83952">
        <ele>184</ele>
        <time>2023-01-10T12:34:05Z</time>
      </trkpt>
      <trkpt lat="49.0581" lon="1.83936">
        <ele>183</ele>
        <time>2023-01-10T12:34:21Z</time>
      </trkpt>
      <trkpt lat="49.05823" lon="1.83959">
        <ele>184</ele>
        <time>2023-01-10T12:34:48Z</time>
      </trkpt>
      <trkpt lat="49.05818" lon="1.83971">
        <ele>185</ele>
        <time>2023-01-10T12:35:00Z</time>
      </trkpt>
      <trkpt lat="49.05778" lon="1.84004">
        <ele>186</ele>
        <time>2023-01-10T12:36:01Z</time>
      </trkpt>
      <trkpt lat="49.05752" lon="1.84045">
        <ele>190</ele>
        <time>2023-01-10T12:36:51Z</time>
      </trkpt>
      <trkpt lat="49.05729" lon="1.84064">
        <ele>189</ele>
        <time>2023-01-10T12:37:26Z</time>
      </trkpt>
      <trkpt lat="49.05688" lon="1.84121">
        <ele>190</ele>
        <time>2023-01-10T12:38:40Z</time>
      </trkpt>
      <trkpt lat="49.05679" lon="1.84129">
        <ele>190</ele>
        <time>2023-01-10T12:38:54Z</time>
      </trkpt>
      <trkpt lat="49.05672" lon="1.84129">
        <ele>189</ele>
        <time>2023-01-10T12:39:03Z</time>
      </trkpt>
      <trkpt lat="49.05627" lon="1.84187">
        <ele>191</ele>
        <time>2023-01-10T12:40:22Z</time>
      </trkpt>
      <trkpt lat="49.05603" lon="1.84207">
        <ele>190</ele>
        <time>2023-01-10T12:40:58Z</time>
      </trkpt>
      <trkpt lat="49.05565" lon="1.84252">
        <ele>189</ele>
        <time>2023-01-10T12:42:02Z</time>
      </trkpt>
      <trkpt lat="49.05556" lon="1.84258">
        <ele>188</ele>
        <time>2023-01-10T12:42:15Z</time>
      </trkpt>
      <trkpt lat="49.05545" lon="1.84256">
        <ele>188</ele>
        <time>2023-01-10T12:42:30Z</time>
      </trkpt>
      <trkpt lat="49.05504" lon="1.84224">
        <ele>184</ele>
        <time>2023-01-10T12:43:32Z</time>
      </trkpt>
      <trkpt lat="49.05498" lon="1.84211">
        <ele>183</ele>
        <time>2023-01-10T12:43:46Z</time>
      </trkpt>
      <trkpt lat="49.055" lon="1.84209">
        <ele>183</ele>
        <time>2023-01-10T12:43:49Z</time>
      </trkpt>
      <trkpt lat="49.05513" lon="1.84228">
        <ele>185</ele>
        <time>2023-01-10T12:44:13Z</time>
      </trkpt>
      <trkpt lat="49.05532" lon="1.84244">
        <ele>187</ele>
        <time>2023-01-10T12:44:42Z</time>
      </trkpt>
      <trkpt lat="49.05533" lon="1.84251">
        <ele>187</ele>
        <time>2023-01-10T12:44:48Z</time>
      </trkpt>
      <trkpt lat="49.05528" lon="1.84253">
        <ele>187</ele>
        <time>2023-01-10T12:44:55Z</time>
      </trkpt>
      <trkpt lat="49.05519" lon="1.8425">
        <ele>186</ele>
        <time>2023-01-10T12:45:07Z</time>
      </trkpt>
      <trkpt lat="49.05492" lon="1.84227">
        <ele>184</ele>
        <time>2023-01-10T12:45:49Z</time>
      </trkpt>
      <trkpt lat="49.05483" lon="1.84214">
        <ele>183</ele>
        <time>2023-01-10T12:46:05Z</time>
      </trkpt>
      <trkpt lat="49.05466" lon="1.8421">
        <ele>183</ele>
        <time>2023-01-10T12:46:28Z</time>
      </trkpt>
      <trkpt lat="49.05434" lon="1.84175">
        <ele>183</ele>
        <time>2023-01-10T12:47:21Z</time>
      </trkpt>
      <trkpt lat="49.05384" lon="1.84135">
        <ele>181</ele>
        <time>2023-01-10T12:48:36Z</time>
      </trkpt>
      <trkpt lat="49.05359" lon="1.84107">
        <ele>180</ele>
        <time>2023-01-10T12:49:17Z</time>
      </trkpt>
      <trkpt lat="49.0535" lon="1.84099">
        <ele>180</ele>
        <time>2023-01-10T12:49:31Z</time>
      </trkpt>
      <trkpt lat="49.05332" lon="1.84092">
        <ele>180</ele>
        <time>2023-01-10T12:49:56Z</time>
      </trkpt>
      <trkpt lat="49.05309" lon="1.84067">
        <ele>178</ele>
        <time>2023-01-10T12:50:34Z</time>
      </trkpt>
      <trkpt lat="49.05288" lon="1.84051">
        <ele>175</ele>
        <time>2023-01-10T12:51:05Z</time>
      </trkpt>
      <trkpt lat="49.05269" lon="1.84022">
        <ele>172</ele>
        <time>2023-01-10T12:51:41Z</time>
      </trkpt>
      <trkpt lat="49.05248" lon="1.83999">
        <ele>169</ele>
        <time>2023-01-10T12:52:15Z</time>
      </trkpt>
      <trkpt lat="49.05222" lon="1.8398">
        <ele>168</ele>
        <time>2023-01-10T12:52:54Z</time>
      </trkpt>
      <trkpt lat="49.05196" lon="1.8395">
        <ele>166</ele>
        <time>2023-01-10T12:53:37Z</time>
      </trkpt>
      <trkpt lat="49.05185" lon="1.83931">
        <ele>165</ele>
        <time>2023-01-10T12:53:59Z</time>
      </trkpt>
      <trkpt lat="49.05182" lon="1.83913">
        <ele>164</ele>
        <time>2023-01-10T12:54:16Z</time>
      </trkpt>
      <trkpt lat="49.05163" lon="1.83888">
        <ele>164</ele>
        <time>2023-01-10T12:54:49Z</time>
      </trkpt>
      <trkpt lat="49.05126" lon="1.83852">
        <ele>161</ele>
        <time>2023-01-10T12:55:48Z</time>
      </trkpt>
      <trkpt lat="49.05112" lon="1.83813">
        <ele>159</ele>
        <time>2023-01-10T12:56:27Z</time>
      </trkpt>
      <trkpt lat="49.05097" lon="1.83789">
        <ele>158</ele>
        <time>2023-01-10T12:56:56Z</time>
      </trkpt>
      <trkpt lat="49.05062" lon="1.83749">
        <ele>157</ele>
        <time>2023-01-10T12:57:54Z</time>
      </trkpt>
      <trkpt lat="49.05033" lon="1.83693">
        <ele>153</ele>
        <time>2023-01-10T12:58:56Z</time>
      </trkpt>
      <trkpt lat="49.05012" lon="1.83684">
        <ele>152</ele>
        <time>2023-01-10T12:59:26Z</time>
      </trkpt>
      <trkpt lat="49.05004" lon="1.8367">
        <ele>151</ele>
        <time>2023-01-10T12:59:42Z</time>
      </trkpt>
      <trkpt lat="49.04984" lon="1.83668">
        <ele>151</ele>
        <time>2023-01-10T13:00:09Z</time>
      </trkpt>
      <trkpt lat="49.04975" lon="1.83671">
        <ele>151</ele>
        <time>2023-01-10T13:00:21Z</time>
      </trkpt>
      <trkpt lat="49.04953" lon="1.83701">
        <ele>155</ele>
        <time>2023-01-10T13:01:00Z</time>
      </trkpt>
      <trkpt lat="49.04944" lon="1.8372">
        <ele>157</ele>
        <time>2023-01-10T13:01:21Z</time>
      </trkpt>
      <trkpt lat="49.04925" lon="1.8374">
        <ele>160</ele>
        <time>2023-01-10T13:01:51Z</time>
      </trkpt>
      <trkpt lat="49.04915" lon="1.83764">
        <ele>162</ele>
        <time>2023-01-10T13:02:16Z</time>
      </trkpt>
      <trkpt lat="49.049" lon="1.83783">
        <ele>163</ele>
        <time>2023-01-10T13:02:42Z</time>
      </trkpt>
      <trkpt lat="49.04879" lon="1.83822">
        <ele>165</ele>
        <time>2023-01-10T13:03:27Z</time>
      </trkpt>
      <trkpt lat="49.04822" lon="1.83905">
        <ele>165</ele>
        <time>2023-01-10T13:05:12Z</time>
      </trkpt>
      <trkpt lat="49.04812" lon="1.83933">
        <ele>165</ele>
        <time>2023-01-10T13:05:40Z</time>
      </trkpt>
      <trkpt lat="49.0477" lon="1.84004">
        <ele>163</ele>
        <time>2023-01-10T13:07:03Z</time>
      </trkpt>
      <trkpt lat="49.04734" lon="1.84048">
        <ele>157</ele>
        <time>2023-01-10T13:08:05Z</time>
      </trkpt>
      <trkpt lat="49.04731" lon="1.8405">
        <ele>156</ele>
        <time>2023-01-10T13:08:09Z</time>
      </trkpt>
      <trkpt lat="49.04719" lon="1.84043">
        <ele>155</ele>
        <time>2023-01-10T13:08:26Z</time>
      </trkpt>
      <trkpt lat="49.04701" lon="1.84068">
        <ele>152</ele>
        <time>2023-01-10T13:08:59Z</time>
      </trkpt>
      <trkpt lat="49.047" lon="1.84098">
        <ele>151</ele>
        <time>2023-01-10T13:09:25Z</time>
      </trkpt>
      <trkpt lat="49.04717" lon="1.8422">
        <ele>152</ele>
        <time>2023-01-10T13:11:14Z</time>
      </trkpt>
      <trkpt lat="49.04722" lon="1.84329">
        <ele>151</ele>
        <time>2023-01-10T13:12:50Z</time>
      </trkpt>
      <trkpt lat="49.04742" lon="1.84439">
        <ele>153</ele>
        <time>2023-01-10T13:14:30Z</time>
      </trkpt>
      <trkpt lat="49.04742" lon="1.84473">
        <ele>152</ele>
        <time>2023-01-10T13:14:59Z</time>
      </trkpt>
      <trkpt lat="49.0475" lon="1.8454">
        <ele>152</ele>
        <time>2023-01-10T13:15:59Z</time>
      </trkpt>
      <trkpt lat="49.04747" lon="1.84604">
        <ele>150</ele>
        <time>2023-01-10T13:16:55Z</time>
      </trkpt>
      <trkpt lat="49.04752" lon="1.84641">
        <ele>149</ele>
        <time>2023-01-10T13:17:28Z</time>
      </trkpt>
      <trkpt lat="49.04752" lon="1.84731">
        <ele>145</ele>
        <time>2023-01-10T13:18:47Z</time>
      </trkpt>
      <trkpt lat="49.04756" lon="1.84766">
        <ele>144</ele>
        <time>2023-01-10T13:19:18Z</time>
      </trkpt>
      <trkpt lat="49.04751" lon="1.84794">
        <ele>142</ele>
        <time>2023-01-10T13:19:43Z</time>
      </trkpt>
      <trkpt lat="49.0474" lon="1.84815">
        <ele>140</ele>
        <time>2023-01-10T13:20:07Z</time>
      </trkpt>
      <trkpt lat="49.04713" lon="1.84846">
        <ele>136</ele>
        <time>2023-01-10T13:20:52Z</time>
      </trkpt>
      <trkpt lat="49.04701" lon="1.84881">
        <ele>134</ele>
        <time>2023-01-10T13:21:26Z</time>
      </trkpt>
      <trkpt lat="49.04722" lon="1.84967">
        <ele>133</ele>
        <time>2023-01-10T13:22:47Z</time>
      </trkpt>
      <trkpt lat="49.04724" lon="1.84993">
        <ele>132</ele>
        <time>2023-01-10T13:23:10Z</time>
      </trkpt>
      <trkpt lat="49.04721" lon="1.85007">
        <ele>131</ele>
        <time>2023-01-10T13:23:22Z</time>
      </trkpt>
      <trkpt lat="49.04687" lon="1.85091">
        <ele>126</ele>
        <time>2023-01-10T13:24:49Z</time>
      </trkpt>
      <trkpt lat="49.0467" lon="1.85116">
        <ele>126</ele>
        <time>2023-01-10T13:25:20Z</time>
      </trkpt>
      <trkpt lat="49.04645" lon="1.85141">
        <ele>126</ele>
        <time>2023-01-10T13:26:00Z</time>
      </trkpt>
      <trkpt lat="49.04638" lon="1.85157">
        <ele>126</ele>
        <time>2023-01-10T13:26:17Z</time>
      </trkpt>
      <trkpt lat="49.04635" lon="1.85195">
        <ele>125</ele>
        <time>2023-01-10T13:26:50Z</time>
      </trkpt>
      <trkpt lat="49.04638" lon="1.85209">
        <ele>125</ele>
        <time>2023-01-10T13:27:03Z</time>
      </trkpt>
      <trkpt lat="49.04648" lon="1.85226">
        <ele>125</ele>
        <time>2023-01-10T13:27:23Z</time>
      </trkpt>
      <trkpt lat="49.04649" lon="1.8525">
        <ele>125</ele>
        <time>2023-01-10T13:27:44Z</time>
      </trkpt>
      <trkpt lat="49.0464" lon="1.85266">
        <ele>124</ele>
        <time>2023-01-10T13:28:03Z</time>
      </trkpt>
      <trkpt lat="49.04627" lon="1.85278">
        <ele>123</ele>
        <time>2023-01-10T13:28:23Z</time>
      </trkpt>
      <trkpt lat="49.04606" lon="1.85281">
        <ele>123</ele>
        <time>2023-01-10T13:28:51Z</time>
      </trkpt>
      <trkpt lat="49.04582" lon="1.85296">
        <ele>122</ele>
        <time>2023-01-10T13:29:26Z</time>
      </trkpt>
      <trkpt lat="49.04558" lon="1.853">
        <ele>121</ele>
        <time>2023-01-10T13:29:58Z</time>
      </trkpt>
      <trkpt lat="49.04553" lon="1.85306">
        <ele>121</ele>
        <time>2023-01-10T13:30:07Z</time>
      </trkpt>
      <trkpt lat="49.0459" lon="1.85358">
        <ele>121</ele>
        <time>2023-01-10T13:31:14Z</time>
      </trkpt>
      <trkpt lat="49.04605" lon="1.85396">
        <ele>121</ele>
        <time>2023-01-10T13:31:52Z</time>
      </trkpt>
      <trkpt lat="49.0461" lon="1.85444">
        <ele>121</ele>
        <time>2023-01-10T13:32:35Z</time>
      </trkpt>
      <trkpt lat="49.04608" lon="1.8547">
        <ele>121</ele>
        <time>2023-01-10T13:32:58Z</time>
      </trkpt>
      <trkpt lat="49.04539" lon="1.85517">
        <ele>118</ele>
        <time>2023-01-10T13:34:39Z</time>
      </trkpt>
      <trkpt lat="49.04509" lon="1.85517">
        <ele>117</ele>
        <time>2023-01-10T13:35:19Z</time>
      </trkpt>
      <trkpt lat="49.04454" lon="1.85531">
        <ele>115</ele>
        <time>2023-01-10T13:36:33Z</time>
      </trkpt>
      <trkpt lat="49.04435" lon="1.85556">
        <ele>114</ele>
        <time>2023-01-10T13:37:07Z</time>
      </trkpt>
      <trkpt lat="49.04419" lon="1.8557">
        <ele>113</ele>
        <time>2023-01-10T13:37:31Z</time>
      </trkpt>
      <trkpt lat="49.04413" lon="1.85585">
        <ele>112</ele>
        <time>2023-01-10T13:37:47Z</time>
      </trkpt>
      <trkpt lat="49.04332" lon="1.85656">
        <ele>108</ele>
        <time>2023-01-10T13:39:51Z</time>
      </trkpt>
      <trkpt lat="49.04303" lon="1.8569">
        <ele>106</ele>
        <time>2023-01-10T13:40:40Z</time>
      </trkpt>
      <trkpt lat="49.04285" lon="1.85703">
        <ele>106</ele>
        <time>2023-01-10T13:41:07Z</time>
      </trkpt>
      <trkpt lat="49.04268" lon="1.85708">
        <ele>106</ele>
        <time>2023-01-10T13:41:30Z</time>
      </trkpt>
      <trkpt lat="49.04235" lon="1.85732">
        <ele>105</ele>
        <time>2023-01-10T13:42:19Z</time>
      </trkpt>
      <trkpt lat="49.04222" lon="1.85736">
        <ele>104</ele>
        <time>2023-01-10T13:42:36Z</time>
      </trkpt>
      <trkpt lat="49.04198" lon="1.85756">
        <ele>102</ele>
        <time>2023-01-10T13:43:13Z</time>
      </trkpt>
      <trkpt lat="49.04184" lon="1.85778">
        <ele>100</ele>
        <time>2023-01-10T13:43:40Z</time>
      </trkpt>
      <trkpt lat="49.04177" lon="1.85803">
        <ele>98</ele>
        <time>2023-01-10T13:44:03Z</time>
      </trkpt>
      <trkpt lat="49.04149" lon="1.86006">
        <ele>92</ele>
        <time>2023-01-10T13:47:05Z</time>
      </trkpt>
      <trkpt lat="49.04139" lon="1.8604">
        <ele>93</ele>
        <time>2023-01-10T13:47:37Z</time>
      </trkpt>
      <trkpt lat="49.04122" lon="1.86071">
        <ele>93</ele>
        <time>2023-01-10T13:48:13Z</time>
      </trkpt>
      <trkpt lat="49.04093" lon="1.86111">
        <ele>93</ele>
        <time>2023-01-10T13:49:05Z</time>
      </trkpt>
      <trkpt lat="49.04" lon="1.86226">
        <ele>91</ele>
        <time>2023-01-10T13:51:45Z</time>
      </trkpt>
      <trkpt lat="49.03903" lon="1.86283">
        <ele>87</ele>
        <time>2023-01-10T13:54:03Z</time>
      </trkpt>
      <trkpt lat="49.03858" lon="1.86295">
        <ele>85</ele>
        <time>2023-01-10T13:55:04Z</time>
      </trkpt>
      <trkpt lat="49.038" lon="1.86371">
        <ele>80</ele>
        <time>2023-01-10T13:56:46Z</time>
      </trkpt>
      <trkpt lat="49.03766" lon="1.86433">
        <ele>72</ele>
        <time>2023-01-10T13:57:57Z</time>
      </trkpt>
      <trkpt lat="49.03734" lon="1.86441">
        <ele>68</ele>
        <time>2023-01-10T13:58:40Z</time>
      </trkpt>
      <trkpt lat="49.03684" lon="1.86434">
        <ele>60</ele>
        <time>2023-01-10T13:59:47Z</time>
      </trkpt>
      <trkpt lat="49.0364" lon="1.86454">
        <ele>53</ele>
        <time>2023-01-10T14:00:49Z</time>
      </trkpt>
      <trkpt lat="49.03594" lon="1.86439">
        <ele>49</ele>
        <time>2023-01-10T14:01:51Z</time>
      </trkpt>
      <trkpt lat="49.03555" lon="1.86465">
        <ele>44</ele>
        <time>2023-01-10T14:02:48Z</time>
      </trkpt>
      <trkpt lat="49.03542" lon="1.86462">
        <ele>42</ele>
        <time>2023-01-10T14:03:06Z</time>
      </trkpt>
      <trkpt lat="49.03536" lon="1.86465">
        <ele>42</ele>
        <time>2023-01-10T14:03:14Z</time>
      </trkpt>
      <trkpt lat="49.03524" lon="1.86484">
        <ele>40</ele>
        <time>2023-01-10T14:03:37Z</time>
      </trkpt>
      <trkpt lat="49.03515" lon="1.8649">
        <ele>39</ele>
        <time>2023-01-10T14:03:50Z</time>
      </trkpt>
      <trkpt lat="49.03514" lon="1.86501">
        <ele>39</ele>
        <time>2023-01-10T14:04:00Z</time>
      </trkpt>
      <trkpt lat="49.03535" lon="1.86605">
        <ele>40</ele>
        <time>2023-01-10T14:05:35Z</time>
      </trkpt>
      <trkpt lat="49.03555" lon="1.86633">
        <ele>40</ele>
        <time>2023-01-10T14:06:12Z</time>
      </trkpt>
    </trkseg>
  </trk>
</gpx>